Aérodrome :







RETROUVEZ-NOUS SUR...

 
LOGIN :

S'inscrire | Disclaimer

   EN    FR    IT 

 









Légende :    VFR   VFR Marginal   IFR   IFR Intensif   IFR Très Intensif
Visi : 
Plafond : 
>= 8 km
>= 3000ft
5 à 8 km
1000 à 3000 ft
1500m à 5 km
500 à 1000 ft
800 à 1500m
200 à 500 ft
< 800m
< 200 ft
Symboles :   Orages  Brouillard  Fortes neiges  Fortes précipitations  Vent > 20 kt






- Altitude de l'aérodrome : 118 ft
- Code IATA : YUL


CYUL - Montréal - Pierre-Elliott-Trudeau Int.

DERNIER METAR :
  • 172000Z 26014KT 30SM FEW060 FEW250 M16/M23 A3076 RMK SC1CI1 SC TR CI TR SLP421

METARs EXPIRÉS :
  • 171900Z 25014KT 30SM FEW035 FEW250 M16/M23 A3075 RMK CF1CI1 CF TR CI TR SLP419
  • 171800Z 25014KT 30SM FEW030 FEW250 M17/M24 A3076 RMK CF1CI1 CF TR CI TR SLP422

TAF TAF CYUL
Valide du 17 à 21h jusqu'au 18 à 18h UTC


172039Z 1721/1818 26015KT P6SM FEW060
BECMG 1723/1801 28007KT
FM180900 VRB03KT P6SM BKN220
FM181300 05008KT P6SM FEW020 BKN120 RMK NXT FCST BY 180000Z
ATIS : ENG : +1 514-633-3037 FRA : +1 514-633-3034



MET'MAP, la Météo Aéronautique d'un coup d'oeil ! - Copyright ORBIFLY Décembre 2007 - Disclaimer

ORBIFLY MET'MAP TEAM :

Programmation & Développement : Alexandra Zaïnal
Sur une idée originale de : Baudouin d'Aumeries
Assistance à la programmation : Marc-Olivier Méhu
Soutien technique & logistique : Manuel Goepfert

Contact : metmap@orbifly.com




SOURCES & CREDITS :

   NOAA